Terminal Aerodrome Forecast
Issued by NWS

Home | Current Version | Previous Version | Graphics & Text | Print | Product List | Glossary On
Versions: 1 2 3 4 5 6 7 8 9 10 11 12
000
FTUS43 KOAX 281120
TAFCDR
TAF
KCDR 281120Z 2812/2912 29018G28KT P6SM SKC
     FM281600 31019G30KT P6SM SKC
     FM290100 30007KT P6SM SKC=

USA.gov is the U.S. government's official web portal to all federal, state and local government web resources and services.